Time;durP1;ratioP1;P1;durP2;ratioP2;P2;SDS_P1;SDS_P2;PMS_P1;PMS_P2;Temp;Humidity;BMP_temperature;BMP_pressure;BME280_temperature;BME280_humidity;BME280_pressure;Samples;Min_cycle;Max_cycle;Signal;HPM_P1;HPM_P2
2022/07/15 00:03:57;;;;;;;10.10;3.47;;;;;14.20;101788.00;;;;10437409;28;20273;-80
2022/07/15 00:08:59;;;;;;;6.67;3.47;;;;;14.10;101796.00;;;;10410008;28;20194;-80
2022/07/15 00:14:02;;;;;;;9.13;3.40;;;;;13.90;101790.00;;;;10405765;28;20228;-80
2022/07/15 00:19:04;;;;;;;8.10;2.80;;;;;13.80;101787.00;;;;10405320;28;20198;-80
2022/07/15 00:24:06;;;;;;;6.70;3.17;;;;;13.60;101787.00;;;;10477496;28;20240;-80
2022/07/15 00:29:08;;;;;;;7.73;3.43;;;;;13.50;101786.00;;;;10446910;28;20205;-80
2022/07/15 00:34:10;;;;;;;8.83;3.53;;;;;13.40;101780.00;;;;10444195;28;20225;-80
2022/07/15 00:39:12;;;;;;;9.03;3.57;;;;;13.30;101784.00;;;;10405616;28;20341;-80
2022/07/15 00:44:14;;;;;;;10.70;4.33;;;;;13.30;101771.00;;;;10422058;28;20221;-80
2022/07/15 00:49:15;;;;;;;7.10;3.50;;;;;13.20;101777.00;;;;10389069;28;20649;-80
2022/07/15 00:54:23;;;;;;;9.00;3.70;;;;;13.10;101769.00;;;;10440144;28;20684;-80
2022/07/15 00:59:31;;;;;;;7.50;3.67;;;;;13.00;101774.00;;;;10446762;28;20308;-80
2022/07/15 01:04:33;;;;;;;6.07;3.83;;;;;12.90;101780.00;;;;10463651;28;20186;-80
2022/07/15 01:09:35;;;;;;;8.03;3.73;;;;;12.80;101782.00;;;;10445509;28;20198;-80
2022/07/15 01:14:38;;;;;;;6.67;3.87;;;;;12.80;101774.00;;;;10404755;28;20221;-80
2022/07/15 01:19:40;;;;;;;8.30;3.83;;;;;12.70;101778.00;;;;10428622;28;20192;-80
2022/07/15 01:24:42;;;;;;;8.07;3.73;;;;;12.70;101774.00;;;;10444541;28;20193;-80
2022/07/15 01:29:59;;;;;;;8.80;3.87;;;;;12.70;101780.00;;;;10452064;28;20551;-80
2022/07/15 01:35:03;;;;;;;8.83;4.03;;;;;12.70;101773.00;;;;10435212;28;20736;-80
2022/07/15 01:40:07;;;;;;;7.27;3.70;;;;;12.60;101792.00;;;;10467826;28;20196;-80
2022/07/15 01:45:09;;;;;;;7.63;4.10;;;;;12.50;101783.00;;;;10502028;28;20217;-80
2022/07/15 01:50:14;;;;;;;6.07;3.33;;;;;12.50;101789.00;;;;10468624;28;20196;-80
2022/07/15 01:55:42;;;;;;;11.37;4.30;;;;;12.30;101793.00;;;;10449886;28;20213;-80
2022/07/15 02:00:45;;;;;;;13.23;4.27;;;;;12.20;101796.00;;;;10484264;28;20251;-80
2022/07/15 02:05:47;;;;;;;10.03;4.63;;;;;12.10;101798.00;;;;10449593;28;20297;-80
2022/07/15 02:10:51;;;;;;;11.63;4.63;;;;;12.10;101797.00;;;;10444517;28;20309;-80
2022/07/15 02:15:54;;;;;;;8.63;4.80;;;;;12.00;101799.00;;;;10449935;28;20194;-80
2022/07/15 02:20:56;;;;;;;13.70;4.70;;;;;12.00;101797.00;;;;10451700;28;20219;-80
2022/07/15 02:25:58;;;;;;;12.93;5.23;;;;;12.00;101801.00;;;;10451690;28;20193;-80
2022/07/15 02:31:02;;;;;;;9.47;5.30;;;;;12.00;101809.00;;;;10467301;28;20227;-80
2022/07/15 02:36:08;;;;;;;11.17;4.77;;;;;12.00;101806.00;;;;10435338;28;20284;-80
2022/07/15 02:41:13;;;;;;;14.57;6.07;;;;;12.00;101806.00;;;;10450208;28;20281;-80
2022/07/15 02:46:19;;;;;;;10.70;5.80;;;;;12.00;101816.00;;;;10466309;28;20201;-80
2022/07/15 02:51:21;;;;;;;11.67;5.43;;;;;12.00;101817.00;;;;10433720;28;20201;-80
2022/07/15 02:56:23;;;;;;;14.33;6.57;;;;;12.00;101825.00;;;;10433990;28;20231;-80
2022/07/15 03:01:25;;;;;;;13.53;6.00;;;;;12.00;101833.00;;;;10432707;28;20561;-80
2022/07/15 03:06:28;;;;;;;14.43;6.90;;;;;11.90;101834.00;;;;10450155;28;20331;-80
2022/07/15 03:11:30;;;;;;;11.30;6.17;;;;;11.80;101835.00;;;;10466560;28;20213;-80
2022/07/15 03:16:33;;;;;;;12.60;6.37;;;;;11.80;101827.00;;;;10448953;28;20742;-80
2022/07/15 03:21:36;;;;;;;17.83;6.73;;;;;11.80;101831.00;;;;10408945;28;20182;-80
2022/07/15 03:26:38;;;;;;;14.67;5.93;;;;;11.80;101831.00;;;;10408662;28;20198;-80
2022/07/15 03:31:40;;;;;;;11.33;5.03;;;;;11.70;101841.00;;;;10436475;28;20213;-80
2022/07/15 03:36:42;;;;;;;11.33;6.10;;;;;11.70;101843.00;;;;10407612;28;20199;-80
2022/07/15 03:41:46;;;;;;;10.77;5.40;;;;;11.60;101851.00;;;;10407129;28;20653;-80
2022/07/15 03:46:48;;;;;;;14.20;5.40;;;;;11.60;101841.00;;;;10445911;28;20565;-80
2022/07/15 03:51:51;;;;;;;10.73;5.70;;;;;11.60;101850.00;;;;10446996;28;20213;-80
2022/07/15 03:56:53;;;;;;;14.17;5.63;;;;;11.60;101859.00;;;;10447154;28;20205;-80
2022/07/15 04:01:55;;;;;;;10.43;5.87;;;;;11.70;101857.00;;;;10436424;28;20264;-80
2022/07/15 04:06:57;;;;;;;11.90;6.07;;;;;11.80;101848.00;;;;10405633;28;20202;-80
2022/07/15 04:11:59;;;;;;;19.43;7.03;;;;;12.00;101855.00;;;;10405230;28;20252;-80
2022/07/15 04:17:02;;;;;;;10.87;6.27;;;;;12.10;101852.00;;;;10433053;28;20190;-80
2022/07/15 04:22:09;;;;;;;13.40;5.67;;;;;12.10;101853.00;;;;10446437;28;20273;-80
2022/07/15 04:27:19;;;;;;;10.57;5.20;;;;;12.20;101861.00;;;;10446697;28;20209;-80
2022/07/15 04:32:20;;;;;;;8.53;5.20;;;;;12.30;101851.00;;;;10445084;28;20296;-80
2022/07/15 04:37:26;;;;;;;12.50;5.73;;;;;12.40;101874.00;;;;10463532;28;20189;-80
2022/07/15 04:42:30;;;;;;;12.43;5.40;;;;;12.50;101865.00;;;;10495419;28;20189;-80
2022/07/15 04:47:32;;;;;;;14.63;5.57;;;;;12.60;101874.00;;;;10461587;28;20194;-80
2022/07/15 04:52:42;;;;;;;16.07;6.13;;;;;12.70;101871.00;;;;10445941;28;20237;-80
2022/07/15 04:57:45;;;;;;;13.37;5.83;;;;;13.00;101874.00;;;;10446072;28;20201;-80
2022/07/15 05:02:48;;;;;;;12.03;5.50;;;;;13.30;101871.00;;;;10431203;28;20209;-80
2022/07/15 05:07:51;;;;;;;12.83;5.70;;;;;13.40;101873.00;;;;10470975;28;20215;-80
2022/07/15 05:12:53;;;;;;;10.13;5.50;;;;;13.50;101864.00;;;;10436723;28;20304;-80
2022/07/15 05:17:55;;;;;;;11.00;5.80;;;;;13.40;101871.00;;;;10428893;28;20668;-80
2022/07/15 05:22:58;;;;;;;12.77;5.30;;;;;13.50;101863.00;;;;10416128;28;20319;-80
2022/07/15 05:28:02;;;;;;;12.20;5.77;;;;;14.30;101858.00;;;;10453579;28;20190;-81
2022/07/15 05:33:04;;;;;;;10.37;5.43;;;;;15.00;101870.00;;;;10453612;28;20216;-81
2022/07/15 05:38:07;;;;;;;11.43;5.07;;;;;15.60;101875.00;;;;10454134;28;20185;-81
2022/07/15 05:43:10;;;;;;;7.50;4.50;;;;;15.90;101870.00;;;;10454217;28;20309;-81
2022/07/15 05:48:15;;;;;;;11.80;4.77;;;;;16.40;101871.00;;;;10437630;28;20227;-81
2022/07/15 05:53:23;;;;;;;10.00;3.77;;;;;16.60;101871.00;;;;10469770;28;20225;-81
2022/07/15 05:58:25;;;;;;;9.43;4.77;;;;;17.00;101876.00;;;;10452585;28;20225;-81
2022/07/15 06:03:29;;;;;;;8.02;3.63;;;;;17.50;101875.00;;;;10469674;28;20192;-81
2022/07/15 06:08:34;;;;;;;8.88;3.53;;;;;17.90;101880.00;;;;10429828;28;20218;-81
2022/07/15 06:13:37;;;;;;;9.35;3.78;;;;;18.40;101876.00;;;;10422641;28;20595;-81
2022/07/15 06:18:40;;;;;;;8.07;3.05;;;;;19.20;101886.00;;;;10442492;28;20203;-81
2022/07/15 06:23:43;;;;;;;6.50;2.88;;;;;19.30;101883.00;;;;10422286;28;20545;-81
2022/07/15 06:28:45;;;;;;;5.80;2.67;;;;;19.50;101884.00;;;;10439125;28;20247;-81
2022/07/15 06:33:54;;;;;;;9.50;2.20;;;;;20.20;101881.00;;;;10477583;28;20683;-82
2022/07/15 06:38:56;;;;;;;3.63;1.95;;;;;20.60;101881.00;;;;10447184;28;20198;-81
2022/07/15 06:44:01;;;;;;;11.13;2.00;;;;;21.00;101886.00;;;;10424911;28;20241;-80
2022/07/15 06:49:13;;;;;;;5.97;2.10;;;;;21.40;101885.00;;;;10429481;28;20304;-80
2022/07/15 06:54:23;;;;;;;5.25;1.38;;;;;21.80;101892.00;;;;10452449;28;20210;-80
2022/07/15 06:59:25;;;;;;;8.25;2.13;;;;;22.20;101891.00;;;;10455946;28;20229;-80
2022/07/15 07:04:31;;;;;;;4.78;1.48;;;;;22.70;101882.00;;;;10428571;28;20196;-80
2022/07/15 07:09:33;;;;;;;4.80;1.40;;;;;23.60;101881.00;;;;10430296;28;20178;-80
2022/07/15 07:14:35;;;;;;;4.78;1.48;;;;;23.50;101891.00;;;;10461254;28;20214;-80
2022/07/15 07:19:37;;;;;;;5.25;1.35;;;;;23.60;101886.00;;;;10465801;28;20276;-80
2022/07/15 07:24:40;;;;;;;3.92;1.25;;;;;23.90;101888.00;;;;10445897;28;20194;-80
2022/07/15 07:29:42;;;;;;;2.53;1.17;;;;;24.20;101887.00;;;;10450886;28;20738;-80
2022/07/15 07:34:44;;;;;;;2.70;1.10;;;;;24.20;101890.00;;;;10437489;28;20265;-80
2022/07/15 07:39:46;;;;;;;3.33;1.40;;;;;24.40;101892.00;;;;10466173;28;20190;-80
2022/07/15 07:44:48;;;;;;;4.82;1.33;;;;;24.80;101898.00;;;;10412014;28;20260;-80
2022/07/15 07:49:50;;;;;;;5.38;1.23;;;;;24.80;101897.00;;;;10440424;28;20194;-80
2022/07/15 07:54:52;;;;;;;6.13;1.27;;;;;24.70;101883.00;;;;10442069;28;20210;-80
2022/07/15 07:59:54;;;;;;;3.10;1.13;;;;;24.80;101894.00;;;;10419108;28;20231;-80
2022/07/15 08:04:56;;;;;;;4.72;1.20;;;;;25.60;101903.00;;;;10461993;28;20643;-80
2022/07/15 08:09:58;;;;;;;6.05;1.25;;;;;26.10;101896.00;;;;10437548;28;20197;-80
2022/07/15 08:15:00;;;;;;;4.50;1.00;;;;;26.50;101895.00;;;;10429570;28;20215;-80
2022/07/15 08:20:04;;;;;;;3.25;1.00;;;;;27.00;101896.00;;;;10416030;28;20248;-79
2022/07/15 08:25:07;;;;;;;3.05;1.20;;;;;27.20;101897.00;;;;10428318;28;20179;-79
2022/07/15 08:30:09;;;;;;;6.40;1.20;;;;;25.80;101903.00;;;;10420240;28;20200;-80
2022/07/15 08:35:11;;;;;;;4.97;1.00;;;;;25.90;101876.00;;;;10458548;28;20220;-80
2022/07/15 08:40:20;;;;;;;4.18;0.98;;;;;27.40;101878.00;;;;10429146;28;20549;-80
2022/07/15 08:45:23;;;;;;;6.55;1.45;;;;;28.30;101879.00;;;;10429193;28;20232;-81
2022/07/15 08:50:26;;;;;;;3.90;1.77;;;;;28.70;101877.00;;;;10466030;28;20194;-81
2022/07/15 08:55:29;;;;;;;7.38;1.60;;;;;29.00;101863.00;;;;10477640;28;20283;-81
2022/07/15 09:00:31;;;;;;;8.77;1.80;;;;;28.70;101869.00;;;;10461937;28;20224;-81
2022/07/15 09:05:34;;;;;;;4.28;1.80;;;;;29.40;101878.00;;;;10439502;28;20186;-80
2022/07/15 09:10:49;;;;;;;3.88;1.83;;;;;28.90;101880.00;;;;10405043;28;20208;-80
2022/07/15 09:15:51;;;;;;;3.60;1.55;;;;;26.50;101861.00;;;;10420568;28;20220;-79
2022/07/15 09:20:54;;;;;;;4.45;1.73;;;;;27.60;101881.00;;;;10443388;28;20201;-78
2022/07/15 09:26:29;;;;;;;4.38;1.20;;;;;27.30;101879.00;;;;10444157;28;20268;-79
2022/07/15 09:37:04;;;;;;;5.07;1.60;;;;;27.30;101872.00;;;;10452196;28;20186;-80
2022/07/15 09:42:07;;;;;;;4.88;1.58;;;;;26.40;101876.00;;;;10448233;28;20221;-80
2022/07/15 09:47:16;;;;;;;6.60;1.50;;;;;26.10;101875.00;;;;10420907;28;20197;-81
2022/07/15 09:52:18;;;;;;;9.43;1.73;;;;;26.90;101864.00;;;;10415101;28;20704;-80
2022/07/15 09:57:21;;;;;;;5.85;1.30;;;;;27.90;101864.00;;;;10484480;28;20267;-80
2022/07/15 10:02:23;;;;;;;4.35;1.50;;;;;29.20;101855.00;;;;10452191;28;20217;-81
2022/07/15 10:07:26;;;;;;;3.95;1.30;;;;;30.30;101854.00;;;;10462831;28;20264;-81
2022/07/15 10:12:53;;;;;;;2.08;1.30;;;;;29.50;101847.00;;;;10451093;28;20248;-80
2022/07/15 10:18:02;;;;;;;5.05;1.65;;;;;29.90;101834.00;;;;10449063;28;20210;-80
2022/07/15 10:23:38;;;;;;;4.88;1.38;;;;;30.60;101831.00;;;;10428350;28;20293;-80
2022/07/15 10:28:52;;;;;;;7.07;1.80;;;;;29.90;101828.00;;;;10467748;28;20193;-80
2022/07/15 10:34:03;;;;;;;7.85;1.85;;;;;31.10;101823.00;;;;10449356;28;20691;-81
2022/07/15 10:39:06;;;;;;;4.97;1.70;;;;;32.00;101815.00;;;;10466336;28;20206;-80
2022/07/15 10:44:11;;;;;;;5.32;1.67;;;;;30.80;101819.00;;;;10427123;28;20633;-80
2022/07/15 10:49:13;;;;;;;5.10;1.35;;;;;29.20;101812.00;;;;10469055;28;20267;-80
2022/07/15 10:54:18;;;;;;;7.03;1.13;;;;;28.70;101807.00;;;;10428630;28;20222;-80
2022/07/15 10:59:23;;;;;;;2.33;1.38;;;;;30.70;101805.00;;;;10450010;28;20225;-78
2022/07/15 11:04:27;;;;;;;4.28;1.70;;;;;31.70;101796.00;;;;10431724;28;20193;-78
2022/07/15 11:09:48;;;;;;;3.55;1.45;;;;;32.40;101799.00;;;;10463129;28;20272;-79
2022/07/15 11:14:52;;;;;;;2.83;1.27;;;;;30.80;101811.00;;;;10465535;28;20225;-79
2022/07/15 11:19:56;;;;;;;2.75;1.13;;;;;31.10;101802.00;;;;10464773;28;20722;-80
2022/07/15 11:24:58;;;;;;;2.25;1.67;;;;;30.60;101788.00;;;;10441887;28;20550;-81
2022/07/15 11:30:03;;;;;;;5.60;1.20;;;;;30.60;101804.00;;;;10425405;28;20261;-81
2022/07/15 11:35:06;;;;;;;5.63;1.20;;;;;30.40;101787.00;;;;10448544;28;20731;-78
2022/07/15 11:45:37;;;;;;;5.10;1.50;;;;;30.50;101788.00;;;;10463375;28;20535;-79
2022/07/15 11:50:51;;;;;;;3.95;1.30;;;;;32.30;101785.00;;;;10434336;28;20557;-79
2022/07/15 11:55:57;;;;;;;3.38;1.55;;;;;32.20;101795.00;;;;10427401;28;20313;-79
2022/07/15 12:01:01;;;;;;;3.42;1.30;;;;;30.30;101795.00;;;;10426952;28;20250;-79
2022/07/15 12:06:19;;;;;;;1.17;0.90;;;;;28.90;101787.00;;;;10428416;28;20200;-78
2022/07/15 12:11:34;;;;;;;3.78;1.20;;;;;29.00;101787.00;;;;10407876;28;20227;-78
2022/07/15 12:16:39;;;;;;;3.30;1.10;;;;;31.00;101785.00;;;;10479253;28;20288;-78
2022/07/15 12:21:42;;;;;;;3.03;1.17;;;;;29.90;101784.00;;;;10443627;28;20193;-78
2022/07/15 12:26:50;;;;;;;1.27;0.90;;;;;29.70;101771.00;;;;10409223;28;20190;-78
2022/07/15 12:31:55;;;;;;;2.60;0.77;;;;;32.40;101771.00;;;;10472045;28;20192;-79
2022/07/15 12:36:58;;;;;;;3.45;1.10;;;;;32.00;101785.00;;;;10415121;28;20653;-79
2022/07/15 12:42:02;;;;;;;1.48;0.80;;;;;30.10;101777.00;;;;10423811;28;20222;-79
2022/07/15 12:47:04;;;;;;;2.55;0.70;;;;;28.80;101779.00;;;;10450269;28;20198;-81
2022/07/15 12:52:14;;;;;;;1.80;0.90;;;;;27.90;101766.00;;;;10446938;28;20262;-80
2022/07/15 12:57:19;;;;;;;3.65;0.80;;;;;27.10;101772.00;;;;10439060;28;20213;-80
2022/07/15 13:02:22;;;;;;;3.10;0.95;;;;;28.90;101757.00;;;;10437784;28;20225;-78
2022/07/15 13:07:24;;;;;;;1.33;0.93;;;;;29.80;101756.00;;;;10428404;28;20193;-79
2022/07/15 13:12:26;;;;;;;2.92;0.77;;;;;30.50;101755.00;;;;10461940;28;20202;-81
2022/07/15 13:17:28;;;;;;;2.17;0.80;;;;;31.20;101753.00;;;;10460966;28;20189;-82
2022/07/15 13:22:31;;;;;;;3.38;1.02;;;;;32.50;101757.00;;;;10478428;28;20910;-80
2022/07/15 13:27:33;;;;;;;1.92;0.90;;;;;32.30;101748.00;;;;10485869;28;20194;-80
2022/07/15 13:32:35;;;;;;;1.80;0.90;;;;;32.30;101741.00;;;;10486897;28;20201;-79
2022/07/15 13:37:38;;;;;;;3.00;0.90;;;;;33.00;101739.00;;;;10443217;28;20194;-80
2022/07/15 13:42:41;;;;;;;4.03;1.00;;;;;33.50;101732.00;;;;10429154;28;20307;-80
2022/07/15 13:47:43;;;;;;;4.57;0.98;;;;;33.20;101730.00;;;;10413530;28;20191;-79
2022/07/15 13:52:50;;;;;;;1.88;0.90;;;;;31.20;101742.00;;;;10450680;28;20208;-78
2022/07/15 13:57:52;;;;;;;2.78;1.10;;;;;29.10;101738.00;;;;10423443;28;20221;-78
2022/07/15 14:02:55;;;;;;;3.08;1.17;;;;;27.40;101741.00;;;;10458882;28;20218;-80
2022/07/15 14:07:57;;;;;;;1.67;1.05;;;;;26.00;101742.00;;;;10468228;28;20201;-80
2022/07/15 14:12:59;;;;;;;2.33;1.05;;;;;29.00;101704.00;;;;10427667;28;20209;-80
2022/07/15 14:18:02;;;;;;;1.80;0.70;;;;;27.40;101729.00;;;;10438067;28;20254;-80
2022/07/15 14:23:04;;;;;;;2.10;1.13;;;;;26.50;101723.00;;;;10485379;28;20190;-80
2022/07/15 14:28:06;;;;;;;1.88;1.20;;;;;26.10;101727.00;;;;10468807;28;20641;-80
2022/07/15 14:33:08;;;;;;;2.58;1.00;;;;;25.10;101717.00;;;;10451820;28;20254;-80
2022/07/15 14:38:10;;;;;;;3.58;1.67;;;;;32.40;101694.00;;;;10450185;28;20197;-81
2022/07/15 14:43:17;;;;;;;3.20;1.00;;;;;33.60;101694.00;;;;10468582;28;20177;-81
2022/07/15 14:48:19;;;;;;;5.22;1.13;;;;;31.10;101717.00;;;;10467093;28;20272;-80
2022/07/15 14:53:21;;;;;;;2.38;0.98;;;;;28.50;101685.00;;;;10483855;28;20201;-78
2022/07/15 14:58:23;;;;;;;3.78;1.27;;;;;33.40;101711.00;;;;10482490;28;20206;-81
2022/07/15 15:03:25;;;;;;;2.65;1.17;;;;;32.50;101686.00;;;;10424912;28;20194;-80
2022/07/15 15:08:27;;;;;;;3.22;1.20;;;;;36.80;101685.00;;;;10446742;28;20198;-81
2022/07/15 15:13:30;;;;;;;4.15;1.25;;;;;37.70;101698.00;;;;10408811;28;20198;-81
2022/07/15 15:18:32;;;;;;;1.30;1.20;;;;;35.60;101711.00;;;;10478804;28;20224;-80
2022/07/15 15:23:34;;;;;;;3.83;1.60;;;;;35.70;101684.00;;;;10450121;28;20201;-81
2022/07/15 15:28:36;;;;;;;6.30;1.80;;;;;30.50;101703.00;;;;10466456;28;20272;-80
2022/07/15 15:33:38;;;;;;;2.13;1.20;;;;;31.60;101683.00;;;;10481357;28;20572;-80
2022/07/15 15:38:40;;;;;;;2.95;1.48;;;;;36.10;101673.00;;;;10482300;28;20202;-80
2022/07/15 15:43:42;;;;;;;1.98;1.05;;;;;36.40;101672.00;;;;10436308;28;20205;-81
2022/07/15 15:48:44;;;;;;;3.42;1.10;;;;;34.70;101682.00;;;;10479376;28;20185;-81
2022/07/15 15:53:46;;;;;;;2.10;1.00;;;;;30.80;101682.00;;;;10468398;28;20282;-80
2022/07/15 15:58:52;;;;;;;2.58;1.50;;;;;28.20;101680.00;;;;10445585;28;20304;-78
2022/07/15 16:03:54;;;;;;;6.18;1.30;;;;;27.20;101673.00;;;;10456062;28;20198;-78
2022/07/15 16:09:04;;;;;;;3.13;1.42;;;;;26.80;101680.00;;;;10457126;28;20190;-79
2022/07/15 16:14:07;;;;;;;5.88;1.15;;;;;26.60;101675.00;;;;10450516;28;20212;-79
2022/07/15 16:19:10;;;;;;;3.47;1.23;;;;;26.20;101667.00;;;;10452426;28;20205;-79
2022/07/15 16:24:12;;;;;;;3.28;1.58;;;;;25.40;101661.00;;;;10443104;28;20186;-79
2022/07/15 16:29:22;;;;;;;2.28;1.38;;;;;25.10;101664.00;;;;10437985;28;20221;-79
2022/07/15 16:34:24;;;;;;;5.55;1.33;;;;;24.50;101671.00;;;;10458786;28;20676;-79
2022/07/15 16:39:26;;;;;;;4.55;1.40;;;;;24.40;101672.00;;;;10464391;28;20192;-80
2022/07/15 16:44:28;;;;;;;2.92;1.50;;;;;24.40;101673.00;;;;10419796;28;20194;-80
2022/07/15 16:49:31;;;;;;;3.25;1.40;;;;;24.30;101668.00;;;;10432813;28;20194;-80
2022/07/15 16:54:33;;;;;;;5.10;1.80;;;;;24.30;101675.00;;;;10472194;28;20216;-80
2022/07/15 16:59:35;;;;;;;5.82;2.25;;;;;24.20;101675.00;;;;10426952;28;20275;-80
2022/07/15 17:04:38;;;;;;;2.97;1.77;;;;;24.20;101665.00;;;;10429831;28;20636;-80
2022/07/15 17:09:41;;;;;;;4.95;2.08;;;;;24.00;101667.00;;;;10445147;28;20208;-80
2022/07/15 17:14:43;;;;;;;3.35;1.23;;;;;23.60;101667.00;;;;10433668;28;20217;-80
2022/07/15 17:19:47;;;;;;;5.07;1.55;;;;;23.70;101659.00;;;;10428042;28;20190;-81
2022/07/15 17:24:49;;;;;;;3.70;1.45;;;;;23.90;101659.00;;;;10412662;28;20662;-80
2022/07/15 17:29:51;;;;;;;4.93;1.73;;;;;24.10;101659.00;;;;10432933;28;20269;-81
2022/07/15 17:34:56;;;;;;;5.22;1.73;;;;;24.00;101649.00;;;;10449643;28;20221;-81
2022/07/15 17:39:59;;;;;;;3.83;1.70;;;;;23.70;101653.00;;;;10441055;28;20595;-81
2022/07/15 17:45:01;;;;;;;4.80;1.75;;;;;23.40;101655.00;;;;10400149;28;20206;-80
2022/07/15 17:50:04;;;;;;;4.18;1.80;;;;;23.10;101660.00;;;;10411494;28;20202;-81
2022/07/15 17:55:07;;;;;;;4.63;1.73;;;;;22.90;101660.00;;;;10425233;28;20305;-80
2022/07/15 18:00:10;;;;;;;4.50;1.98;;;;;22.70;101664.00;;;;10414318;28;20221;-81
2022/07/15 18:05:16;;;;;;;4.78;1.85;;;;;22.60;101657.00;;;;10458483;28;20266;-81
2022/07/15 18:10:21;;;;;;;5.32;1.75;;;;;22.60;101656.00;;;;10437891;28;20721;-81
2022/07/15 18:15:25;;;;;;;4.72;1.77;;;;;22.60;101647.00;;;;10424975;28;20221;-80
2022/07/15 18:20:28;;;;;;;3.90;1.90;;;;;22.60;101651.00;;;;10428244;28;20277;-79
2022/07/15 18:25:30;;;;;;;3.00;1.67;;;;;22.50;101654.00;;;;10456456;28;20185;-80
2022/07/15 18:30:33;;;;;;;2.30;1.23;;;;;22.30;101654.00;;;;10437595;28;20193;-80
2022/07/15 18:35:35;;;;;;;4.20;1.58;;;;;22.10;101659.00;;;;10436215;28;20215;-80
2022/07/15 18:40:37;;;;;;;4.70;1.20;;;;;21.80;101660.00;;;;10421816;28;20190;-80
2022/07/15 18:45:40;;;;;;;1.52;1.00;;;;;21.60;101649.00;;;;10418255;28;20268;-80
2022/07/15 18:50:43;;;;;;;1.80;1.00;;;;;21.40;101651.00;;;;10431484;28;20287;-79
2022/07/15 18:55:49;;;;;;;2.22;1.30;;;;;21.30;101663.00;;;;10436723;28;20220;-80
2022/07/15 19:00:53;;;;;;;1.90;1.00;;;;;21.10;101652.00;;;;10439759;28;20392;-80
2022/07/15 19:05:56;;;;;;;2.50;1.02;;;;;21.00;101650.00;;;;10415072;28;20194;-79
2022/07/15 19:10:58;;;;;;;5.22;1.58;;;;;20.80;101662.00;;;;10430444;28;20197;-79
2022/07/15 19:16:00;;;;;;;3.97;1.35;;;;;20.70;101668.00;;;;10426830;28;20688;-80
2022/07/15 19:21:02;;;;;;;4.70;1.48;;;;;20.60;101660.00;;;;10416380;28;20488;-79
2022/07/15 19:26:05;;;;;;;3.83;1.25;;;;;20.40;101659.00;;;;10457353;28;20193;-80
2022/07/15 19:31:07;;;;;;;2.63;1.38;;;;;20.30;101664.00;;;;10438107;28;20297;-79
2022/07/15 19:36:09;;;;;;;3.45;1.27;;;;;20.00;101666.00;;;;10435581;28;20241;-79
2022/07/15 19:41:13;;;;;;;10.05;1.20;;;;;19.80;101670.00;;;;10456390;28;20210;-79
2022/07/15 19:46:16;;;;;;;1.73;1.30;;;;;19.50;101670.00;;;;10452736;28;20216;-79
2022/07/15 19:51:19;;;;;;;2.70;1.35;;;;;19.30;101668.00;;;;10404635;28;20603;-79
2022/07/15 19:56:22;;;;;;;4.38;1.85;;;;;19.10;101676.00;;;;10458349;28;20612;-79
2022/07/15 20:01:24;;;;;;;1.67;1.17;;;;;18.90;101682.00;;;;10433688;28;20220;-80
2022/07/15 20:06:26;;;;;;;3.30;1.33;;;;;18.50;101690.00;;;;10486474;28;20182;-80
2022/07/15 20:11:28;;;;;;;4.22;1.58;;;;;18.20;101692.00;;;;10455009;28;20231;-79
2022/07/15 20:16:31;;;;;;;2.90;1.35;;;;;17.90;101683.00;;;;10424214;28;20237;-79
2022/07/15 20:21:37;;;;;;;7.95;1.35;;;;;17.70;101692.00;;;;10455305;28;20273;-80
2022/07/15 20:26:39;;;;;;;3.00;1.10;;;;;17.50;101690.00;;;;10457004;28;20184;-79
2022/07/15 20:31:41;;;;;;;6.93;3.13;;;;;17.30;101691.00;;;;10415597;28;20194;-79
2022/07/15 20:36:44;;;;;;;3.63;1.88;;;;;17.10;101697.00;;;;10451315;28;20229;-79
2022/07/15 20:41:46;;;;;;;3.22;1.42;;;;;17.00;101688.00;;;;10428144;28;20979;-79
2022/07/15 20:46:51;;;;;;;2.75;1.70;;;;;16.90;101686.00;;;;10455591;28;20208;-79
2022/07/15 20:52:02;;;;;;;4.27;1.40;;;;;16.80;101682.00;;;;10444540;28;20257;-79
2022/07/15 20:57:07;;;;;;;4.80;1.47;;;;;16.70;101683.00;;;;10465966;28;20217;-79
2022/07/15 21:02:09;;;;;;;3.07;1.20;;;;;16.60;101676.00;;;;10442541;28;20213;-79
2022/07/15 21:07:12;;;;;;;2.93;1.50;;;;;16.50;101685.00;;;;10467672;28;20190;-79
2022/07/15 21:12:14;;;;;;;3.40;2.63;;;;;16.50;101680.00;;;;10427809;28;20205;-80
2022/07/15 21:17:16;;;;;;;2.80;1.60;;;;;16.40;101681.00;;;;10408690;28;20221;-80
2022/07/15 21:22:19;;;;;;;5.63;1.60;;;;;16.30;101679.00;;;;10423620;28;20185;-79
2022/07/15 21:27:21;;;;;;;4.67;1.73;;;;;16.10;101678.00;;;;10457415;28;20197;-79
2022/07/15 21:32:23;;;;;;;2.20;1.60;;;;;16.00;101670.00;;;;10443274;28;20193;-79
2022/07/15 21:37:26;;;;;;;6.23;1.90;;;;;15.80;101677.00;;;;10419493;28;20234;-79
2022/07/15 21:42:28;;;;;;;5.80;2.10;;;;;15.70;101666.00;;;;10438517;28;20178;-79
2022/07/15 21:47:30;;;;;;;3.97;2.23;;;;;15.50;101669.00;;;;10430994;28;20213;-79
2022/07/15 21:52:32;;;;;;;7.37;4.37;;;;;15.50;101663.00;;;;10451359;28;20193;-79
2022/07/15 21:57:34;;;;;;;3.20;1.97;;;;;15.50;101653.00;;;;10462380;28;20224;-80
2022/07/15 22:02:36;;;;;;;6.03;3.37;;;;;15.40;101647.00;;;;10413278;28;20580;-80
2022/07/15 22:07:39;;;;;;;5.63;2.80;;;;;15.40;101664.00;;;;10435858;28;20193;-80
2022/07/15 22:12:41;;;;;;;6.33;2.80;;;;;15.50;101671.00;;;;10467575;28;20201;-81
2022/07/15 22:17:52;;;;;;;5.90;2.30;;;;;15.50;101672.00;;;;10436834;28;20229;-80
2022/07/15 22:22:54;;;;;;;4.83;2.03;;;;;15.40;101663.00;;;;10467072;28;20208;-79
2022/07/15 22:27:56;;;;;;;3.87;2.20;;;;;15.30;101670.00;;;;10477522;28;20225;-79
2022/07/15 22:33:02;;;;;;;5.33;2.27;;;;;15.20;101678.00;;;;10474799;28;20185;-80
2022/07/15 22:38:04;;;;;;;3.33;1.90;;;;;15.10;101681.00;;;;10448308;28;20623;-79
2022/07/15 22:43:07;;;;;;;4.07;1.93;;;;;15.00;101675.00;;;;10434055;28;20221;-80
2022/07/15 22:48:10;;;;;;;4.77;2.13;;;;;14.90;101686.00;;;;10443346;28;20190;-80
2022/07/15 22:53:12;;;;;;;3.83;2.60;;;;;14.80;101683.00;;;;10456344;28;20216;-79
2022/07/15 22:58:14;;;;;;;5.23;2.90;;;;;14.80;101684.00;;;;10421352;28;20218;-79
2022/07/15 23:03:17;;;;;;;2.83;1.90;;;;;14.80;101689.00;;;;10429483;28;20209;-79
2022/07/15 23:08:20;;;;;;;3.13;2.30;;;;;14.80;101693.00;;;;10444843;28;20306;-79
2022/07/15 23:13:22;;;;;;;4.73;2.80;;;;;14.70;101693.00;;;;10432208;28;20194;-79
2022/07/15 23:18:24;;;;;;;6.43;2.10;;;;;14.70;101692.00;;;;10407105;28;20222;-79
2022/07/15 23:23:27;;;;;;;3.40;2.10;;;;;14.80;101698.00;;;;10436877;28;20301;-80
2022/07/15 23:28:29;;;;;;;5.13;1.97;;;;;14.90;101700.00;;;;10463878;28;20224;-79
2022/07/15 23:33:31;;;;;;;5.57;2.60;;;;;15.00;101688.00;;;;10464038;28;20190;-79
2022/07/15 23:38:33;;;;;;;3.80;2.60;;;;;15.00;101692.00;;;;10446644;28;20194;-80
2022/07/15 23:43:34;;;;;;;2.87;2.37;;;;;15.00;101690.00;;;;10446738;28;20251;-79
2022/07/15 23:48:37;;;;;;;4.20;2.90;;;;;15.00;101681.00;;;;10480460;28;20209;-79
2022/07/15 23:53:39;;;;;;;7.17;2.70;;;;;15.00;101682.00;;;;10462914;28;20188;-79
2022/07/15 23:58:45;;;;;;;3.90;2.63;;;;;14.90;101677.00;;;;10446616;28;20228;-80
